sensor_id;sensor_type;location;lat;lon;timestamp;temperature;humidity
22192;DHT22;11261;52.456;10.850;2022-09-09T00:02:02;13.50;99.90
22192;DHT22;11261;52.456;10.850;2022-09-09T00:04:33;13.30;99.90
22192;DHT22;11261;52.456;10.850;2022-09-09T00:07:07;13.30;99.90
22192;DHT22;11261;52.456;10.850;2022-09-09T00:09:43;13.40;99.90
22192;DHT22;11261;52.456;10.850;2022-09-09T00:12:19;13.40;99.90
22192;DHT22;11261;52.456;10.850;2022-09-09T00:14:52;13.50;99.90
22192;DHT22;11261;52.456;10.850;2022-09-09T00:17:33;13.60;99.90
22192;DHT22;11261;52.456;10.850;2022-09-09T00:20:12;13.70;99.90
22192;DHT22;11261;52.456;10.850;2022-09-09T00:22:47;13.60;99.90
22192;DHT22;11261;52.456;10.850;2022-09-09T00:25:21;13.80;99.90
22192;DHT22;11261;52.456;10.850;2022-09-09T00:27:54;13.90;99.90
22192;DHT22;11261;52.456;10.850;2022-09-09T00:30:25;13.90;99.90
22192;DHT22;11261;52.456;10.850;2022-09-09T00:32:58;13.80;99.90
22192;DHT22;11261;52.456;10.850;2022-09-09T00:35:29;13.80;99.90
22192;DHT22;11261;52.456;10.850;2022-09-09T00:38:01;13.90;99.90
22192;DHT22;11261;52.456;10.850;2022-09-09T00:40:33;13.90;99.90
22192;DHT22;11261;52.456;10.850;2022-09-09T00:43:18;13.90;99.90
22192;DHT22;11261;52.456;10.850;2022-09-09T00:45:59;13.90;99.90
22192;DHT22;11261;52.456;10.850;2022-09-09T00:48:37;13.90;99.90
22192;DHT22;11261;52.456;10.850;2022-09-09T00:51:14;13.90;99.90
22192;DHT22;11261;52.456;10.850;2022-09-09T00:54:09;14.00;99.90
22192;DHT22;11261;52.456;10.850;2022-09-09T00:56:45;14.00;99.90
22192;DHT22;11261;52.456;10.850;2022-09-09T00:59:23;14.10;99.90
22192;DHT22;11261;52.456;10.850;2022-09-09T01:01:54;14.00;99.90
22192;DHT22;11261;52.456;10.850;2022-09-09T01:04:28;14.00;99.90
22192;DHT22;11261;52.456;10.850;2022-09-09T01:07:04;13.90;99.90
22192;DHT22;11261;52.456;10.850;2022-09-09T01:09:45;13.80;99.90
22192;DHT22;11261;52.456;10.850;2022-09-09T01:12:28;13.80;99.90
22192;DHT22;11261;52.456;10.850;2022-09-09T01:15:08;13.80;99.90
22192;DHT22;11261;52.456;10.850;2022-09-09T01:17:46;13.90;99.90
22192;DHT22;11261;52.456;10.850;2022-09-09T01:20:22;13.80;99.90
22192;DHT22;11261;52.456;10.850;2022-09-09T01:23:15;13.80;99.90
22192;DHT22;11261;52.456;10.850;2022-09-09T01:26:11;13.80;99.90
22192;DHT22;11261;52.456;10.850;2022-09-09T01:28:43;13.80;99.90
22192;DHT22;11261;52.456;10.850;2022-09-09T01:31:15;13.80;99.90
22192;DHT22;11261;52.456;10.850;2022-09-09T01:33:44;13.80;99.90
22192;DHT22;11261;52.456;10.850;2022-09-09T01:36:18;13.80;99.90
22192;DHT22;11261;52.456;10.850;2022-09-09T01:38:47;13.80;99.90
22192;DHT22;11261;52.456;10.850;2022-09-09T01:41:17;13.80;99.90
22192;DHT22;11261;52.456;10.850;2022-09-09T01:43:45;13.80;99.90
22192;DHT22;11261;52.456;10.850;2022-09-09T01:46:14;13.80;99.90
22192;DHT22;11261;52.456;10.850;2022-09-09T01:48:43;13.80;99.90
22192;DHT22;11261;52.456;10.850;2022-09-09T01:51:11;13.80;99.90
22192;DHT22;11261;52.456;10.850;2022-09-09T01:53:41;13.80;99.90
22192;DHT22;11261;52.456;10.850;2022-09-09T01:56:20;13.80;99.90
22192;DHT22;11261;52.456;10.850;2022-09-09T01:59:05;13.80;99.90
22192;DHT22;11261;52.456;10.850;2022-09-09T02:01:46;13.90;99.90
22192;DHT22;11261;52.456;10.850;2022-09-09T02:04:24;13.90;99.90
22192;DHT22;11261;52.456;10.850;2022-09-09T02:06:56;13.80;99.90
22192;DHT22;11261;52.456;10.850;2022-09-09T02:09:25;13.80;99.90
22192;DHT22;11261;52.456;10.850;2022-09-09T02:12:00;13.90;99.90
22192;DHT22;11261;52.456;10.850;2022-09-09T02:14:33;13.90;99.90
22192;DHT22;11261;52.456;10.850;2022-09-09T02:17:08;13.80;99.90
22192;DHT22;11261;52.456;10.850;2022-09-09T02:19:41;13.80;99.90
22192;DHT22;11261;52.456;10.850;2022-09-09T02:22:12;13.90;99.90
22192;DHT22;11261;52.456;10.850;2022-09-09T02:24:41;13.90;99.90
22192;DHT22;11261;52.456;10.850;2022-09-09T02:27:10;13.80;99.90
22192;DHT22;11261;52.456;10.850;2022-09-09T02:29:41;13.70;99.90
22192;DHT22;11261;52.456;10.850;2022-09-09T02:32:14;13.80;99.90
22192;DHT22;11261;52.456;10.850;2022-09-09T02:34:46;13.80;99.90
22192;DHT22;11261;52.456;10.850;2022-09-09T02:37:18;13.90;99.90
22192;DHT22;11261;52.456;10.850;2022-09-09T02:39:47;13.90;99.90
22192;DHT22;11261;52.456;10.850;2022-09-09T02:42:17;13.80;99.90
22192;DHT22;11261;52.456;10.850;2022-09-09T02:44:45;13.80;99.90
22192;DHT22;11261;52.456;10.850;2022-09-09T02:47:23;13.80;99.90
22192;DHT22;11261;52.456;10.850;2022-09-09T02:50:00;13.80;99.90
22192;DHT22;11261;52.456;10.850;2022-09-09T02:52:38;13.80;99.90
22192;DHT22;11261;52.456;10.850;2022-09-09T02:55:15;13.90;99.90
22192;DHT22;11261;52.456;10.850;2022-09-09T02:57:47;13.80;99.90
22192;DHT22;11261;52.456;10.850;2022-09-09T03:00:16;13.70;99.90
22192;DHT22;11261;52.456;10.850;2022-09-09T03:02:51;13.70;99.90
22192;DHT22;11261;52.456;10.850;2022-09-09T03:05:20;13.70;99.90
22192;DHT22;11261;52.456;10.850;2022-09-09T03:07:49;13.80;99.90
22192;DHT22;11261;52.456;10.850;2022-09-09T03:10:17;13.70;99.90
22192;DHT22;11261;52.456;10.850;2022-09-09T03:12:47;13.80;99.90
22192;DHT22;11261;52.456;10.850;2022-09-09T03:15:15;13.70;99.90
22192;DHT22;11261;52.456;10.850;2022-09-09T03:17:43;13.70;99.90
22192;DHT22;11261;52.456;10.850;2022-09-09T03:20:12;13.60;99.90
22192;DHT22;11261;52.456;10.850;2022-09-09T03:22:40;13.80;99.90
22192;DHT22;11261;52.456;10.850;2022-09-09T03:25:08;13.90;99.90
22192;DHT22;11261;52.456;10.850;2022-09-09T03:27:36;13.90;99.90
22192;DHT22;11261;52.456;10.850;2022-09-09T03:30:07;13.90;99.90
22192;DHT22;11261;52.456;10.850;2022-09-09T03:32:36;13.90;99.90
22192;DHT22;11261;52.456;10.850;2022-09-09T03:35:05;13.80;99.90
22192;DHT22;11261;52.456;10.850;2022-09-09T03:37:33;13.70;99.90
22192;DHT22;11261;52.456;10.850;2022-09-09T03:40:02;13.60;99.90
22192;DHT22;11261;52.456;10.850;2022-09-09T03:42:30;13.60;99.90
22192;DHT22;11261;52.456;10.850;2022-09-09T03:44:58;13.60;99.90
22192;DHT22;11261;52.456;10.850;2022-09-09T03:47:27;13.60;99.90
22192;DHT22;11261;52.456;10.850;2022-09-09T03:49:56;13.50;99.90
22192;DHT22;11261;52.456;10.850;2022-09-09T03:52:24;13.50;99.90
22192;DHT22;11261;52.456;10.850;2022-09-09T03:54:53;13.40;99.90
22192;DHT22;11261;52.456;10.850;2022-09-09T03:57:23;13.40;99.90
22192;DHT22;11261;52.456;10.850;2022-09-09T03:59:51;13.40;99.90
22192;DHT22;11261;52.456;10.850;2022-09-09T04:02:19;13.40;99.90
22192;DHT22;11261;52.456;10.850;2022-09-09T04:04:49;13.50;99.90
22192;DHT22;11261;52.456;10.850;2022-09-09T04:07:17;13.50;99.90
22192;DHT22;11261;52.456;10.850;2022-09-09T04:09:45;13.50;99.90
22192;DHT22;11261;52.456;10.850;2022-09-09T04:12:14;13.50;99.90
22192;DHT22;11261;52.456;10.850;2022-09-09T04:14:43;13.40;99.90
22192;DHT22;11261;52.456;10.850;2022-09-09T04:17:11;13.50;99.90
22192;DHT22;11261;52.456;10.850;2022-09-09T04:19:39;13.30;99.90
22192;DHT22;11261;52.456;10.850;2022-09-09T04:22:10;13.00;99.90
22192;DHT22;11261;52.456;10.850;2022-09-09T04:24:38;12.80;99.90
22192;DHT22;11261;52.456;10.850;2022-09-09T04:27:12;12.70;99.90
22192;DHT22;11261;52.456;10.850;2022-09-09T04:29:40;12.80;99.90
22192;DHT22;11261;52.456;10.850;2022-09-09T04:32:08;12.70;99.90
22192;DHT22;11261;52.456;10.850;2022-09-09T04:34:36;14.70;99.90
22192;DHT22;11261;52.456;10.850;2022-09-09T04:37:05;15.60;99.90
22192;DHT22;11261;52.456;10.850;2022-09-09T04:39:34;16.40;99.90
22192;DHT22;11261;52.456;10.850;2022-09-09T04:42:03;16.80;99.90
22192;DHT22;11261;52.456;10.850;2022-09-09T04:44:31;16.90;99.90
22192;DHT22;11261;52.456;10.850;2022-09-09T04:46:59;16.80;99.90
22192;DHT22;11261;52.456;10.850;2022-09-09T04:49:27;16.50;99.90
22192;DHT22;11261;52.456;10.850;2022-09-09T04:51:57;16.50;99.90
22192;DHT22;11261;52.456;10.850;2022-09-09T04:54:25;16.30;99.90
22192;DHT22;11261;52.456;10.850;2022-09-09T04:56:56;16.30;99.90
22192;DHT22;11261;52.456;10.850;2022-09-09T04:59:25;16.40;99.90
22192;DHT22;11261;52.456;10.850;2022-09-09T05:01:53;16.40;99.90
22192;DHT22;11261;52.456;10.850;2022-09-09T05:04:22;16.70;99.90
22192;DHT22;11261;52.456;10.850;2022-09-09T05:06:50;16.80;99.90
22192;DHT22;11261;52.456;10.850;2022-09-09T05:09:19;16.90;99.90
22192;DHT22;11261;52.456;10.850;2022-09-09T05:11:47;17.00;99.90
22192;DHT22;11261;52.456;10.850;2022-09-09T05:14:17;17.10;99.90
22192;DHT22;11261;52.456;10.850;2022-09-09T05:16:45;17.10;99.90
22192;DHT22;11261;52.456;10.850;2022-09-09T05:19:13;16.80;99.90
22192;DHT22;11261;52.456;10.850;2022-09-09T05:21:42;17.00;99.90
22192;DHT22;11261;52.456;10.850;2022-09-09T05:24:10;17.40;99.90
22192;DHT22;11261;52.456;10.850;2022-09-09T05:26:39;18.20;99.90
22192;DHT22;11261;52.456;10.850;2022-09-09T05:29:07;18.50;99.90
22192;DHT22;11261;52.456;10.850;2022-09-09T05:31:36;18.60;99.90
22192;DHT22;11261;52.456;10.850;2022-09-09T05:34:06;18.60;99.90
22192;DHT22;11261;52.456;10.850;2022-09-09T05:36:34;18.40;99.90
22192;DHT22;11261;52.456;10.850;2022-09-09T05:39:02;17.80;99.90
22192;DHT22;11261;52.456;10.850;2022-09-09T05:41:30;17.50;99.90
22192;DHT22;11261;52.456;10.850;2022-09-09T05:43:58;17.40;99.90
22192;DHT22;11261;52.456;10.850;2022-09-09T05:46:27;17.30;99.90
22192;DHT22;11261;52.456;10.850;2022-09-09T05:48:57;17.40;99.90
22192;DHT22;11261;52.456;10.850;2022-09-09T05:51:26;17.60;99.90
22192;DHT22;11261;52.456;10.850;2022-09-09T05:53:56;17.50;99.90
22192;DHT22;11261;52.456;10.850;2022-09-09T05:56:26;17.20;99.90
22192;DHT22;11261;52.456;10.850;2022-09-09T05:58:55;17.20;99.90
22192;DHT22;11261;52.456;10.850;2022-09-09T06:01:25;17.40;99.90
22192;DHT22;11261;52.456;10.850;2022-09-09T06:03:54;17.50;99.90
22192;DHT22;11261;52.456;10.850;2022-09-09T06:06:25;17.80;99.90
22192;DHT22;11261;52.456;10.850;2022-09-09T06:08:55;18.00;99.90
22192;DHT22;11261;52.456;10.850;2022-09-09T06:11:25;17.90;99.90
22192;DHT22;11261;52.456;10.850;2022-09-09T06:13:54;17.90;99.90
22192;DHT22;11261;52.456;10.850;2022-09-09T06:16:23;17.60;99.90
22192;DHT22;11261;52.456;10.850;2022-09-09T06:18:53;17.10;99.90
22192;DHT22;11261;52.456;10.850;2022-09-09T06:21:24;17.00;99.90
22192;DHT22;11261;52.456;10.850;2022-09-09T06:23:53;16.60;99.90
22192;DHT22;11261;52.456;10.850;2022-09-09T06:26:28;16.40;99.90
22192;DHT22;11261;52.456;10.850;2022-09-09T06:28:57;16.70;99.90
22192;DHT22;11261;52.456;10.850;2022-09-09T06:31:27;17.30;99.90
22192;DHT22;11261;52.456;10.850;2022-09-09T06:33:58;17.80;99.90
22192;DHT22;11261;52.456;10.850;2022-09-09T06:36:30;17.70;99.90
22192;DHT22;11261;52.456;10.850;2022-09-09T06:38:59;18.10;99.90
22192;DHT22;11261;52.456;10.850;2022-09-09T06:41:29;18.50;99.90
22192;DHT22;11261;52.456;10.850;2022-09-09T06:43:57;18.80;99.90
22192;DHT22;11261;52.456;10.850;2022-09-09T06:46:26;18.90;99.90
22192;DHT22;11261;52.456;10.850;2022-09-09T06:48:56;19.00;99.90
22192;DHT22;11261;52.456;10.850;2022-09-09T06:51:26;18.50;99.90
22192;DHT22;11261;52.456;10.850;2022-09-09T06:53:57;18.00;99.90
22192;DHT22;11261;52.456;10.850;2022-09-09T06:56:27;18.00;99.90
22192;DHT22;11261;52.456;10.850;2022-09-09T06:58:57;17.30;99.90
22192;DHT22;11261;52.456;10.850;2022-09-09T07:01:27;17.70;99.90
22192;DHT22;11261;52.456;10.850;2022-09-09T07:03:58;17.40;99.90
22192;DHT22;11261;52.456;10.850;2022-09-09T07:06:28;17.00;99.90
22192;DHT22;11261;52.456;10.850;2022-09-09T07:08:59;17.30;99.90
22192;DHT22;11261;52.456;10.850;2022-09-09T07:11:30;17.00;99.90
22192;DHT22;11261;52.456;10.850;2022-09-09T07:13:59;17.80;99.90
22192;DHT22;11261;52.456;10.850;2022-09-09T07:16:27;18.70;99.90
22192;DHT22;11261;52.456;10.850;2022-09-09T07:18:57;19.00;99.90
22192;DHT22;11261;52.456;10.850;2022-09-09T07:21:29;18.90;99.90
22192;DHT22;11261;52.456;10.850;2022-09-09T07:23:58;18.80;99.90
22192;DHT22;11261;52.456;10.850;2022-09-09T07:26:29;18.70;99.90
22192;DHT22;11261;52.456;10.850;2022-09-09T07:28:57;18.60;99.90
22192;DHT22;11261;52.456;10.850;2022-09-09T07:31:28;19.10;99.90
22192;DHT22;11261;52.456;10.850;2022-09-09T07:33:58;19.70;99.90
22192;DHT22;11261;52.456;10.850;2022-09-09T07:36:28;20.60;99.90
22192;DHT22;11261;52.456;10.850;2022-09-09T07:39:03;20.90;99.90
22192;DHT22;11261;52.456;10.850;2022-09-09T07:41:34;20.60;99.90
22192;DHT22;11261;52.456;10.850;2022-09-09T07:44:06;20.80;99.90
22192;DHT22;11261;52.456;10.850;2022-09-09T07:46:36;21.10;99.90
22192;DHT22;11261;52.456;10.850;2022-09-09T07:49:06;21.40;99.90
22192;DHT22;11261;52.456;10.850;2022-09-09T07:51:37;21.10;99.90
22192;DHT22;11261;52.456;10.850;2022-09-09T07:54:09;21.20;99.90
22192;DHT22;11261;52.456;10.850;2022-09-09T07:56:38;21.60;99.90
22192;DHT22;11261;52.456;10.850;2022-09-09T07:59:07;21.60;99.90
22192;DHT22;11261;52.456;10.850;2022-09-09T08:01:39;22.40;99.90
22192;DHT22;11261;52.456;10.850;2022-09-09T08:04:09;22.00;99.90
22192;DHT22;11261;52.456;10.850;2022-09-09T08:06:42;21.30;99.90
22192;DHT22;11261;52.456;10.850;2022-09-09T08:09:13;20.80;99.90
22192;DHT22;11261;52.456;10.850;2022-09-09T08:11:42;21.90;99.90
22192;DHT22;11261;52.456;10.850;2022-09-09T08:14:11;21.70;99.90
22192;DHT22;11261;52.456;10.850;2022-09-09T08:16:42;21.50;99.90
22192;DHT22;11261;52.456;10.850;2022-09-09T08:19:10;21.70;99.90
22192;DHT22;11261;52.456;10.850;2022-09-09T08:21:39;22.00;99.90
22192;DHT22;11261;52.456;10.850;2022-09-09T08:24:09;21.60;99.90
22192;DHT22;11261;52.456;10.850;2022-09-09T08:26:41;21.10;99.90
22192;DHT22;11261;52.456;10.850;2022-09-09T08:29:11;21.00;99.90
22192;DHT22;11261;52.456;10.850;2022-09-09T08:34:09;21.30;99.90
22192;DHT22;11261;52.456;10.850;2022-09-09T08:36:39;21.70;99.90
22192;DHT22;11261;52.456;10.850;2022-09-09T08:39:10;21.80;99.90
22192;DHT22;11261;52.456;10.850;2022-09-09T08:42:11;21.70;99.90
22192;DHT22;11261;52.456;10.850;2022-09-09T08:44:51;21.80;99.90
22192;DHT22;11261;52.456;10.850;2022-09-09T08:47:26;22.10;99.90
22192;DHT22;11261;52.456;10.850;2022-09-09T08:50:13;22.20;99.90
22192;DHT22;11261;52.456;10.850;2022-09-09T08:52:51;22.30;99.90
22192;DHT22;11261;52.456;10.850;2022-09-09T08:55:28;22.30;99.90
22192;DHT22;11261;52.456;10.850;2022-09-09T08:58:06;22.20;99.90
22192;DHT22;11261;52.456;10.850;2022-09-09T09:00:57;22.00;99.90
22192;DHT22;11261;52.456;10.850;2022-09-09T09:03:35;21.80;99.90
22192;DHT22;11261;52.456;10.850;2022-09-09T09:06:14;22.00;99.90
22192;DHT22;11261;52.456;10.850;2022-09-09T09:08:50;22.10;99.90
22192;DHT22;11261;52.456;10.850;2022-09-09T09:11:20;22.00;99.90
22192;DHT22;11261;52.456;10.850;2022-09-09T09:13:53;22.10;99.90
22192;DHT22;11261;52.456;10.850;2022-09-09T09:16:29;22.30;99.90
22192;DHT22;11261;52.456;10.850;2022-09-09T09:18:59;21.90;99.90
22192;DHT22;11261;52.456;10.850;2022-09-09T09:21:34;22.20;99.90
22192;DHT22;11261;52.456;10.850;2022-09-09T09:24:11;23.10;99.90
22192;DHT22;11261;52.456;10.850;2022-09-09T09:26:47;23.00;99.90
22192;DHT22;11261;52.456;10.850;2022-09-09T09:29:19;23.10;99.90
22192;DHT22;11261;52.456;10.850;2022-09-09T09:31:51;22.90;99.90
22192;DHT22;11261;52.456;10.850;2022-09-09T09:34:21;22.90;99.90
22192;DHT22;11261;52.456;10.850;2022-09-09T09:36:53;23.10;99.90
22192;DHT22;11261;52.456;10.850;2022-09-09T09:39:23;23.30;99.90
22192;DHT22;11261;52.456;10.850;2022-09-09T09:42:13;23.10;99.90
22192;DHT22;11261;52.456;10.850;2022-09-09T09:44:48;23.30;99.90
22192;DHT22;11261;52.456;10.850;2022-09-09T09:47:17;23.20;99.90
22192;DHT22;11261;52.456;10.850;2022-09-09T09:49:53;23.10;99.90
22192;DHT22;11261;52.456;10.850;2022-09-09T09:52:23;23.60;99.90
22192;DHT22;11261;52.456;10.850;2022-09-09T09:54:52;23.90;99.90
22192;DHT22;11261;52.456;10.850;2022-09-09T09:57:25;24.10;99.90
22192;DHT22;11261;52.456;10.850;2022-09-09T10:00:06;23.80;99.90
22192;DHT22;11261;52.456;10.850;2022-09-09T10:02:41;24.40;99.90
22192;DHT22;11261;52.456;10.850;2022-09-09T10:05:15;24.50;99.90
22192;DHT22;11261;52.456;10.850;2022-09-09T10:07:43;24.10;99.90
22192;DHT22;11261;52.456;10.850;2022-09-09T10:10:16;24.50;99.90
22192;DHT22;11261;52.456;10.850;2022-09-09T10:12:56;24.80;99.90
22192;DHT22;11261;52.456;10.850;2022-09-09T10:15:38;24.80;99.90
22192;DHT22;11261;52.456;10.850;2022-09-09T10:18:20;24.80;99.90
22192;DHT22;11261;52.456;10.850;2022-09-09T10:20:57;24.70;99.90
22192;DHT22;11261;52.456;10.850;2022-09-09T10:23:42;24.60;99.90
22192;DHT22;11261;52.456;10.850;2022-09-09T10:26:25;24.50;99.90
22192;DHT22;11261;52.456;10.850;2022-09-09T10:29:22;24.40;99.90
22192;DHT22;11261;52.456;10.850;2022-09-09T10:32:03;24.80;99.90
22192;DHT22;11261;52.456;10.850;2022-09-09T10:34:49;25.30;99.90
22192;DHT22;11261;52.456;10.850;2022-09-09T10:37:31;25.90;99.90
22192;DHT22;11261;52.456;10.850;2022-09-09T10:40:20;25.50;99.90
22192;DHT22;11261;52.456;10.850;2022-09-09T10:42:55;24.80;99.90
22192;DHT22;11261;52.456;10.850;2022-09-09T10:45:30;25.40;99.90
22192;DHT22;11261;52.456;10.850;2022-09-09T10:48:26;25.50;99.90
22192;DHT22;11261;52.456;10.850;2022-09-09T10:51:06;24.90;99.90
22192;DHT22;11261;52.456;10.850;2022-09-09T10:53:47;25.00;99.90
22192;DHT22;11261;52.456;10.850;2022-09-09T10:56:18;25.80;99.90
22192;DHT22;11261;52.456;10.850;2022-09-09T10:58:50;25.90;99.90
22192;DHT22;11261;52.456;10.850;2022-09-09T11:01:23;25.30;99.90
22192;DHT22;11261;52.456;10.850;2022-09-09T11:03:57;23.70;99.90
22192;DHT22;11261;52.456;10.850;2022-09-09T11:06:34;22.80;99.90
22192;DHT22;11261;52.456;10.850;2022-09-09T11:09:03;23.50;99.90
22192;DHT22;11261;52.456;10.850;2022-09-09T11:11:37;23.80;99.90
22192;DHT22;11261;52.456;10.850;2022-09-09T11:14:14;24.50;99.90
22192;DHT22;11261;52.456;10.850;2022-09-09T11:16:47;24.70;99.90
22192;DHT22;11261;52.456;10.850;2022-09-09T11:19:26;24.30;99.90
22192;DHT22;11261;52.456;10.850;2022-09-09T11:21:57;24.70;99.90
22192;DHT22;11261;52.456;10.850;2022-09-09T11:24:31;25.10;99.90
22192;DHT22;11261;52.456;10.850;2022-09-09T11:27:06;24.70;99.90
22192;DHT22;11261;52.456;10.850;2022-09-09T11:29:55;24.30;99.90
22192;DHT22;11261;52.456;10.850;2022-09-09T11:32:42;24.60;99.90
22192;DHT22;11261;52.456;10.850;2022-09-09T11:35:28;24.20;99.90
22192;DHT22;11261;52.456;10.850;2022-09-09T11:38:14;24.70;99.90
22192;DHT22;11261;52.456;10.850;2022-09-09T11:40:44;24.80;99.90
22192;DHT22;11261;52.456;10.850;2022-09-09T11:43:15;24.70;99.90
22192;DHT22;11261;52.456;10.850;2022-09-09T11:45:51;24.60;99.90
22192;DHT22;11261;52.456;10.850;2022-09-09T11:48:30;24.60;99.90
22192;DHT22;11261;52.456;10.850;2022-09-09T11:51:04;24.30;99.90
22192;DHT22;11261;52.456;10.850;2022-09-09T11:53:48;24.20;99.90
22192;DHT22;11261;52.456;10.850;2022-09-09T11:56:28;24.00;99.90
22192;DHT22;11261;52.456;10.850;2022-09-09T11:59:00;24.10;99.90
22192;DHT22;11261;52.456;10.850;2022-09-09T12:01:34;24.20;99.90
22192;DHT22;11261;52.456;10.850;2022-09-09T12:04:27;24.20;99.90
22192;DHT22;11261;52.456;10.850;2022-09-09T12:07:03;23.80;99.90
22192;DHT22;11261;52.456;10.850;2022-09-09T12:09:40;23.40;99.90
22192;DHT22;11261;52.456;10.850;2022-09-09T12:12:32;23.20;99.90
22192;DHT22;11261;52.456;10.850;2022-09-09T12:15:23;23.10;99.90
22192;DHT22;11261;52.456;10.850;2022-09-09T12:17:56;23.20;99.90
22192;DHT22;11261;52.456;10.850;2022-09-09T12:20:33;23.70;99.90
22192;DHT22;11261;52.456;10.850;2022-09-09T12:23:22;23.90;99.90
22192;DHT22;11261;52.456;10.850;2022-09-09T12:26:00;23.60;99.90
22192;DHT22;11261;52.456;10.850;2022-09-09T12:28:42;23.70;99.90
22192;DHT22;11261;52.456;10.850;2022-09-09T12:31:16;23.60;99.90
22192;DHT22;11261;52.456;10.850;2022-09-09T12:33:46;23.60;99.90
22192;DHT22;11261;52.456;10.850;2022-09-09T12:36:18;22.80;99.90
22192;DHT22;11261;52.456;10.850;2022-09-09T12:38:48;22.60;99.90
22192;DHT22;11261;52.456;10.850;2022-09-09T12:41:22;22.60;99.90
22192;DHT22;11261;52.456;10.850;2022-09-09T12:44:02;22.80;99.90
22192;DHT22;11261;52.456;10.850;2022-09-09T12:46:35;22.70;99.90
22192;DHT22;11261;52.456;10.850;2022-09-09T12:49:04;22.50;99.90
22192;DHT22;11261;52.456;10.850;2022-09-09T12:51:33;22.60;99.90
22192;DHT22;11261;52.456;10.850;2022-09-09T12:54:03;22.60;99.90
22192;DHT22;11261;52.456;10.850;2022-09-09T12:56:32;22.70;99.90
22192;DHT22;11261;52.456;10.850;2022-09-09T12:59:02;22.90;99.90
22192;DHT22;11261;52.456;10.850;2022-09-09T13:01:31;23.00;99.90
22192;DHT22;11261;52.456;10.850;2022-09-09T13:04:00;23.10;99.90
22192;DHT22;11261;52.456;10.850;2022-09-09T13:06:30;23.10;99.90
22192;DHT22;11261;52.456;10.850;2022-09-09T13:09:00;23.10;99.90
22192;DHT22;11261;52.456;10.850;2022-09-09T13:11:35;23.10;99.90
22192;DHT22;11261;52.456;10.850;2022-09-09T13:14:05;23.10;99.90
22192;DHT22;11261;52.456;10.850;2022-09-09T13:16:35;23.00;99.90
22192;DHT22;11261;52.456;10.850;2022-09-09T13:19:13;23.10;99.90
22192;DHT22;11261;52.456;10.850;2022-09-09T13:21:42;23.20;99.90
22192;DHT22;11261;52.456;10.850;2022-09-09T13:24:26;23.30;99.90
22192;DHT22;11261;52.456;10.850;2022-09-09T13:26:58;23.20;99.90
22192;DHT22;11261;52.456;10.850;2022-09-09T13:29:29;23.20;99.90
22192;DHT22;11261;52.456;10.850;2022-09-09T13:32:04;23.10;99.90
22192;DHT22;11261;52.456;10.850;2022-09-09T13:34:35;22.90;99.90
22192;DHT22;11261;52.456;10.850;2022-09-09T13:37:05;22.80;99.90
22192;DHT22;11261;52.456;10.850;2022-09-09T13:39:35;23.00;99.90
22192;DHT22;11261;52.456;10.850;2022-09-09T13:42:18;22.90;99.90
22192;DHT22;11261;52.456;10.850;2022-09-09T13:44:49;22.80;99.90
22192;DHT22;11261;52.456;10.850;2022-09-09T13:47:19;22.40;99.90
22192;DHT22;11261;52.456;10.850;2022-09-09T13:49:47;22.70;99.90
22192;DHT22;11261;52.456;10.850;2022-09-09T13:52:17;22.80;99.90
22192;DHT22;11261;52.456;10.850;2022-09-09T13:54:47;22.60;99.90
22192;DHT22;11261;52.456;10.850;2022-09-09T13:57:19;22.40;99.90
22192;DHT22;11261;52.456;10.850;2022-09-09T13:59:47;22.50;99.90
22192;DHT22;11261;52.456;10.850;2022-09-09T14:02:32;22.60;99.90
22192;DHT22;11261;52.456;10.850;2022-09-09T14:05:01;22.60;99.90
22192;DHT22;11261;52.456;10.850;2022-09-09T14:07:29;22.70;99.90
22192;DHT22;11261;52.456;10.850;2022-09-09T14:09:57;22.80;99.90
22192;DHT22;11261;52.456;10.850;2022-09-09T14:12:28;22.70;99.90
22192;DHT22;11261;52.456;10.850;2022-09-09T14:14:56;22.60;99.90
22192;DHT22;11261;52.456;10.850;2022-09-09T14:17:26;22.70;99.90
22192;DHT22;11261;52.456;10.850;2022-09-09T14:19:58;22.80;99.90
22192;DHT22;11261;52.456;10.850;2022-09-09T14:22:27;23.00;99.90
22192;DHT22;11261;52.456;10.850;2022-09-09T14:24:55;22.80;99.90
22192;DHT22;11261;52.456;10.850;2022-09-09T14:27:24;22.90;99.90
22192;DHT22;11261;52.456;10.850;2022-09-09T14:29:54;22.90;99.90
22192;DHT22;11261;52.456;10.850;2022-09-09T14:32:22;23.00;99.90
22192;DHT22;11261;52.456;10.850;2022-09-09T14:34:51;23.00;99.90
22192;DHT22;11261;52.456;10.850;2022-09-09T14:37:19;23.00;99.90
22192;DHT22;11261;52.456;10.850;2022-09-09T14:39:47;23.20;99.90
22192;DHT22;11261;52.456;10.850;2022-09-09T14:42:17;23.10;99.90
22192;DHT22;11261;52.456;10.850;2022-09-09T14:44:45;23.20;99.90
22192;DHT22;11261;52.456;10.850;2022-09-09T14:47:15;23.20;99.90
22192;DHT22;11261;52.456;10.850;2022-09-09T14:49:43;22.60;99.90
22192;DHT22;11261;52.456;10.850;2022-09-09T14:52:13;22.60;99.90
22192;DHT22;11261;52.456;10.850;2022-09-09T14:54:41;22.90;99.90
22192;DHT22;11261;52.456;10.850;2022-09-09T14:57:09;23.10;99.90
22192;DHT22;11261;52.456;10.850;2022-09-09T14:59:37;23.00;99.90
22192;DHT22;11261;52.456;10.850;2022-09-09T15:02:05;22.90;99.90
22192;DHT22;11261;52.456;10.850;2022-09-09T15:04:36;22.70;99.90
22192;DHT22;11261;52.456;10.850;2022-09-09T15:07:04;22.70;99.90
22192;DHT22;11261;52.456;10.850;2022-09-09T15:09:32;22.70;99.90
22192;DHT22;11261;52.456;10.850;2022-09-09T15:12:01;22.90;99.90
22192;DHT22;11261;52.456;10.850;2022-09-09T15:14:29;22.70;99.90
22192;DHT22;11261;52.456;10.850;2022-09-09T15:16:58;22.50;99.90
22192;DHT22;11261;52.456;10.850;2022-09-09T15:19:26;22.60;99.90
22192;DHT22;11261;52.456;10.850;2022-09-09T15:21:55;22.40;99.90
22192;DHT22;11261;52.456;10.850;2022-09-09T15:24:23;22.50;99.90
22192;DHT22;11261;52.456;10.850;2022-09-09T15:26:52;22.40;99.90
22192;DHT22;11261;52.456;10.850;2022-09-09T15:29:20;22.30;99.90
22192;DHT22;11261;52.456;10.850;2022-09-09T15:31:49;22.00;99.90
22192;DHT22;11261;52.456;10.850;2022-09-09T15:34:17;21.40;99.90
22192;DHT22;11261;52.456;10.850;2022-09-09T15:36:46;21.70;99.90
22192;DHT22;11261;52.456;10.850;2022-09-09T15:39:17;21.50;99.90
22192;DHT22;11261;52.456;10.850;2022-09-09T15:41:46;20.90;99.90
22192;DHT22;11261;52.456;10.850;2022-09-09T15:44:15;20.80;99.90
22192;DHT22;11261;52.456;10.850;2022-09-09T15:46:44;20.80;99.90
22192;DHT22;11261;52.456;10.850;2022-09-09T15:49:14;20.90;99.90
22192;DHT22;11261;52.456;10.850;2022-09-09T15:51:45;20.70;99.90